Safford, Arizona
Current Conditions -  °F | °C
As of 2:51 AM on Friday 31 Oct 2014 (Local Time) from KSAD Reporting Station
Clear Clear  
Wind Chill: 68°   Ceiling: Unl
Heat Index: 68°   Visibility: 10mi
Dew Point: 31°   Wind: 14mph
Humidity: 25%   Direction: 100°E
Pressure: 30.1"   Gusts: NA
Location:  32.83°N, 109.7°W
Report Text: KSAD 310951Z AUTO 10012KT 10SM CLR 20/M01 A3010 RMK AO2 SLP146 T02001006
Loading
Personal Weather Stations






























Interactive Weather Map
Tropical Storm Tracking
New forecast layout! Learn more

10-Day Weather Forecast

Advertisements
Track Severe Weather on mobile